Time;durP1;ratioP1;P1;durP2;ratioP2;P2;SDS_P1;SDS_P2;PMS_P1;PMS_P2;Temp;Humidity;BMP_temperature;BMP_pressure;BME280_temperature;BME280_humidity;BME280_pressure;Samples;Min_cycle;Max_cycle;Signal;HPM_P1;HPM_P2
2023/12/29 00:01:13;;;;;;;19.02;3.28;;;;;;;10.32;100.00;100686.03;5084220;28;20036;-74
2023/12/29 00:03:38;;;;;;;18.88;3.10;;;;;;;10.36;100.00;100682.56;5085346;28;20020;-73
2023/12/29 00:06:04;;;;;;;14.73;2.92;;;;;;;10.36;100.00;100679.03;5082860;28;20052;-74
2023/12/29 00:08:29;;;;;;;18.90;3.13;;;;;;;10.34;100.00;100678.13;5086422;28;20046;-75
2023/12/29 00:10:55;;;;;;;16.13;2.72;;;;;;;10.38;100.00;100664.97;5082680;28;20486;-79
2023/12/29 00:13:23;;;;;;;17.05;3.10;;;;;;;10.37;100.00;100657.91;5085073;28;20078;-78
2023/12/29 00:15:52;;;;;;;16.45;2.92;;;;;;;10.42;100.00;100671.13;5065690;28;20351;-74
2023/12/29 00:18:17;;;;;;;15.27;2.97;;;;;;;10.39;100.00;100716.91;5066650;28;20479;-78
2023/12/29 00:20:44;;;;;;;15.00;3.05;;;;;;;10.30;100.00;100677.22;5083844;28;20133;-74
2023/12/29 00:23:09;;;;;;;14.23;3.13;;;;;;;10.33;100.00;100666.66;5083654;28;20040;-77
2023/12/29 00:25:38;;;;;;;14.65;2.85;;;;;;;10.25;100.00;100678.97;5085193;28;20034;-76
2023/12/29 00:28:04;;;;;;;15.95;3.13;;;;;;;10.19;100.00;100669.25;5082428;28;20040;-73
2023/12/29 00:30:30;;;;;;;16.05;2.90;;;;;;;10.27;100.00;100671.94;5085984;28;20368;-79
2023/12/29 00:32:56;;;;;;;15.55;2.78;;;;;;;10.30;100.00;100662.25;5086164;28;20031;-80
2023/12/29 00:35:21;;;;;;;16.17;2.88;;;;;;;10.32;100.00;100656.09;5083010;28;20494;-80
2023/12/29 00:37:46;;;;;;;14.05;2.88;;;;;;;10.35;100.00;100664.94;5084665;28;20028;-79
2023/12/29 00:40:12;;;;;;;17.80;3.35;;;;;;;10.28;100.00;100656.09;5084245;28;20032;-74
2023/12/29 00:42:38;;;;;;;15.15;2.90;;;;;;;10.28;100.00;100631.41;5082824;28;20035;-76
2023/12/29 00:45:04;;;;;;;16.90;3.08;;;;;;;10.05;100.00;100652.50;5085473;28;20028;-75
2023/12/29 00:47:29;;;;;;;13.65;2.97;;;;;;;9.84;100.00;100640.97;5081889;28;20499;-78
2023/12/29 00:49:55;;;;;;;18.08;3.20;;;;;;;9.58;100.00;100638.19;5084974;28;20064;-78
2023/12/29 00:52:20;;;;;;;17.73;3.30;;;;;;;9.28;100.00;100631.88;5082966;28;20020;-76
2023/12/29 00:54:45;;;;;;;17.50;3.10;;;;;;;9.24;100.00;100617.78;5083436;28;20036;-74
2023/12/29 00:57:11;;;;;;;20.00;3.35;;;;;;;9.19;100.00;100639.75;5083962;28;20379;-75
2023/12/29 00:59:43;;;;;;;17.63;3.20;;;;;;;9.17;100.00;100644.13;5082554;28;20024;-75
2023/12/29 01:02:09;;;;;;;16.35;3.20;;;;;;;9.06;100.00;100651.97;5084396;28;20371;-76
2023/12/29 01:04:37;;;;;;;17.10;3.30;;;;;;;8.94;100.00;100650.13;5081960;28;20027;-75
2023/12/29 01:07:03;;;;;;;17.85;3.30;;;;;;;8.97;100.00;100636.94;5085204;28;20027;-76
2023/12/29 01:09:28;;;;;;;20.23;3.63;;;;;;;8.92;100.00;100633.38;5081446;28;20032;-75
2023/12/29 01:11:53;;;;;;;19.50;3.45;;;;;;;8.66;100.00;100655.13;5084537;28;20024;-75
2023/12/29 01:14:19;;;;;;;21.85;3.50;;;;;;;8.53;100.00;100643.63;5065606;28;20028;-76
2023/12/29 01:16:45;;;;;;;20.10;3.53;;;;;;;8.45;100.00;100657.59;5065225;28;20112;-76
2023/12/29 01:19:10;;;;;;;20.35;3.40;;;;;;;8.25;100.00;100659.97;5065686;28;20048;-75
2023/12/29 01:21:37;;;;;;;20.88;3.72;;;;;;;8.14;100.00;100663.38;5063612;28;20086;-81
2023/12/29 01:24:07;;;;;;;19.40;3.75;;;;;;;8.07;100.00;100629.94;5066294;28;20074;-80
2023/12/29 01:26:36;;;;;;;19.92;3.85;;;;;;;8.01;100.00;100664.97;5081092;28;20036;-79
2023/12/29 01:29:02;;;;;;;21.92;3.92;;;;;;;7.96;100.00;100682.44;5081439;28;20529;-76
2023/12/29 01:31:31;;;;;;;20.48;4.00;;;;;;;7.94;100.00;100668.38;5084861;28;20029;-79
2023/12/29 01:33:57;;;;;;;22.67;4.20;;;;;;;7.91;100.00;100681.50;5081262;28;20570;-79
2023/12/29 01:36:22;;;;;;;19.50;3.83;;;;;;;7.88;100.00;100670.94;5083906;28;20020;-79
2023/12/29 01:38:47;;;;;;;21.80;4.30;;;;;;;7.80;100.00;100673.47;5082676;28;20092;-78
2023/12/29 01:41:13;;;;;;;21.08;3.88;;;;;;;7.85;100.00;100670.91;5082222;28;20089;-77
2023/12/29 01:44:00;;;;;;;22.85;3.92;;;;;;;7.89;100.00;100671.81;5083726;28;20043;-79
2023/12/29 01:46:28;;;;;;;20.00;3.97;;;;;;;7.91;100.00;100660.44;5084492;28;20020;-78
2023/12/29 01:48:54;;;;;;;19.67;3.70;;;;;;;7.81;100.00;100659.44;5081341;28;20391;-78
2023/12/29 01:51:23;;;;;;;21.63;4.20;;;;;;;7.81;100.00;100659.44;5083136;28;20025;-76
2023/12/29 01:53:49;;;;;;;20.95;4.45;;;;;;;7.78;100.00;100661.16;5082266;28;20070;-79
2023/12/29 01:56:14;;;;;;;19.75;4.10;;;;;;;7.74;100.00;100660.22;5082494;28;20502;-77
2023/12/29 01:58:40;;;;;;;20.90;4.35;;;;;;;7.78;100.00;100662.03;5083245;28;20110;-75
2023/12/29 02:01:07;;;;;;;22.63;4.10;;;;;;;7.80;100.00;100662.94;5081222;28;20372;-75
2023/12/29 02:03:33;;;;;;;21.48;4.00;;;;;;;7.77;100.00;100668.16;5084512;28;20099;-75
2023/12/29 02:05:59;;;;;;;20.70;4.00;;;;;;;7.84;100.00;100645.44;5080624;28;20025;-79
2023/12/29 02:08:25;;;;;;;20.67;3.78;;;;;;;7.81;100.00;100655.94;5083914;28;20051;-78
2023/12/29 02:10:51;;;;;;;20.75;3.60;;;;;;;7.83;100.00;100660.38;5082040;28;20368;-78
2023/12/29 02:13:16;;;;;;;20.73;3.80;;;;;;;7.82;100.00;100662.94;5054870;28;20481;-78
2023/12/29 02:15:42;;;;;;;21.27;4.10;;;;;;;7.88;100.00;100662.16;5083299;28;20115;-78
2023/12/29 02:18:14;;;;;;;19.73;3.95;;;;;;;7.96;100.00;100678.94;5081217;28;20480;-78
2023/12/29 02:20:40;;;;;;;22.55;4.32;;;;;;;8.06;100.00;100679.94;5065022;28;20101;-78
2023/12/29 02:23:06;;;;;;;20.73;3.45;;;;;;;8.18;100.00;100669.53;5063211;28;20056;-78
2023/12/29 02:25:31;;;;;;;20.17;3.88;;;;;;;8.24;100.00;100682.75;5066196;28;20056;-78
2023/12/29 02:28:06;;;;;;;20.75;3.45;;;;;;;8.32;100.00;100660.03;5080865;28;20032;-77
2023/12/29 02:30:57;;;;;;;19.60;3.70;;;;;;;8.29;100.00;100654.75;5081179;28;20387;-78
2023/12/29 02:33:25;;;;;;;19.83;3.47;;;;;;;8.38;100.00;100649.56;5077025;28;20036;-74
2023/12/29 02:35:52;;;;;;;17.17;3.33;;;;;;;8.31;100.00;100642.47;5086226;28;20029;-75
2023/12/29 02:38:18;;;;;;;20.92;3.47;;;;;;;8.27;100.00;100624.88;5068025;28;20399;-76
2023/12/29 02:40:43;;;;;;;20.35;3.30;;;;;;;8.27;100.00;100635.41;5085846;28;20036;-75
2023/12/29 02:43:09;;;;;;;19.40;3.67;;;;;;;8.28;100.00;100639.78;5087298;28;20414;-76
2023/12/29 02:45:35;;;;;;;16.92;3.28;;;;;;;8.40;100.00;100667.13;5084665;28;20028;-76
2023/12/29 02:48:00;;;;;;;19.00;3.45;;;;;;;8.44;100.00;100639.97;5087965;28;20495;-76
2023/12/29 02:50:25;;;;;;;20.08;3.45;;;;;;;8.43;100.00;100640.81;5085075;28;20459;-75
2023/12/29 02:52:51;;;;;;;20.38;3.60;;;;;;;8.48;100.00;100660.25;5086438;28;20028;-75
2023/12/29 02:55:16;;;;;;;18.13;3.40;;;;;;;8.51;100.00;100652.38;5085832;28;20024;-76
2023/12/29 02:57:41;;;;;;;20.23;3.75;;;;;;;8.48;100.00;100615.44;5085053;28;20464;-76
2023/12/29 03:00:08;;;;;;;19.85;3.20;;;;;;;8.48;100.00;100640.03;5086803;28;20531;-83
2023/12/29 03:02:33;;;;;;;20.02;3.30;;;;;;;8.53;100.00;100653.25;5084151;28;20434;-83
2023/12/29 03:04:59;;;;;;;20.20;3.50;;;;;;;8.50;100.00;100654.13;5069321;28;20027;-81
2023/12/29 03:07:25;;;;;;;17.75;3.15;;;;;;;8.52;100.00;100640.97;5084335;28;20394;-83
2023/12/29 03:09:50;;;;;;;19.20;3.42;;;;;;;8.51;100.00;100633.91;5086174;28;20033;-82
2023/12/29 03:12:16;;;;;;;21.27;3.42;;;;;;;8.52;100.00;100633.06;5085454;28;20032;-83
2023/12/29 03:14:41;;;;;;;16.58;3.28;;;;;;;8.59;100.00;100647.16;5084689;28;20031;-83
2023/12/29 03:17:06;;;;;;;17.58;3.17;;;;;;;8.69;100.00;100618.28;5086826;28;20400;-82
2023/12/29 03:19:32;;;;;;;18.95;3.20;;;;;;;8.69;100.00;100614.75;5083454;28;20131;-78
2023/12/29 03:21:57;;;;;;;17.27;2.97;;;;;;;8.63;100.00;100626.13;5068953;28;20032;-82
2023/12/29 03:24:22;;;;;;;18.27;3.40;;;;;;;8.66;100.00;100626.13;5084448;28;20368;-82
2023/12/29 03:26:48;;;;;;;19.25;3.50;;;;;;;8.77;100.00;100628.00;5085405;28;20052;-82
2023/12/29 03:29:13;;;;;;;19.00;3.38;;;;;;;8.78;100.00;100633.28;5085692;28;20046;-81
2023/12/29 03:31:39;;;;;;;18.40;3.50;;;;;;;8.77;100.00;100620.97;5083979;28;20098;-83
2023/12/29 03:34:05;;;;;;;20.33;3.28;;;;;;;8.78;100.00;100619.22;5086605;28;20024;-83
2023/12/29 03:36:30;;;;;;;17.40;3.42;;;;;;;8.81;100.00;100627.13;5065642;28;20039;-75
2023/12/29 03:38:55;;;;;;;17.70;3.13;;;;;;;8.89;100.00;100599.09;5086283;28;20028;-81
2023/12/29 03:41:21;;;;;;;19.40;3.50;;;;;;;8.88;100.00;100607.88;5084141;28;20040;-81
2023/12/29 03:43:46;;;;;;;19.52;3.45;;;;;;;8.88;100.00;100611.41;5085215;28;20159;-79
2023/12/29 03:46:19;;;;;;;17.13;3.20;;;;;;;9.02;100.00;100616.75;5066994;28;20024;-75
2023/12/29 03:48:45;;;;;;;18.80;3.30;;;;;;;9.13;100.00;100613.31;5084420;28;20033;-76
2023/12/29 03:51:11;;;;;;;19.92;3.70;;;;;;;9.29;100.00;100594.09;5085772;28;20368;-77
2023/12/29 03:53:36;;;;;;;18.90;3.17;;;;;;;9.28;100.00;100618.69;5083202;28;20117;-76
2023/12/29 03:56:09;;;;;;;18.92;3.22;;;;;;;9.32;100.00;100607.31;5068473;28;20070;-79
2023/12/29 03:58:35;;;;;;;19.52;3.17;;;;;;;9.31;100.00;100592.34;5083231;28;20055;-76
2023/12/29 04:01:01;;;;;;;18.15;3.38;;;;;;;9.37;100.00;100607.31;5086197;28;20028;-78
2023/12/29 04:03:26;;;;;;;18.85;3.35;;;;;;;9.45;100.00;100620.53;5065280;28;20044;-78
2023/12/29 04:05:51;;;;;;;19.20;3.15;;;;;;;9.49;100.00;100610.00;5085305;28;20373;-78
2023/12/29 04:08:17;;;;;;;18.83;3.17;;;;;;;9.49;100.00;100617.91;5084276;28;20109;-79
2023/12/29 04:10:42;;;;;;;17.23;3.10;;;;;;;9.42;100.00;100597.66;5083558;28;20025;-78
2023/12/29 04:13:07;;;;;;;17.25;3.30;;;;;;;9.41;100.00;100609.97;5085645;28;20027;-78
2023/12/29 04:15:33;;;;;;;17.30;3.33;;;;;;;9.36;100.00;100595.00;5064529;28;20115;-78
2023/12/29 04:17:58;;;;;;;17.83;3.13;;;;;;;9.39;100.00;100595.91;5085626;28;20024;-79
2023/12/29 04:20:24;;;;;;;20.95;3.53;;;;;;;9.42;100.00;100606.47;5083038;28;20063;-75
2023/12/29 04:22:49;;;;;;;18.17;3.10;;;;;;;9.40;100.00;100618.75;5084681;28;20040;-75
2023/12/29 04:25:15;;;;;;;19.52;3.40;;;;;;;9.38;100.00;100609.09;5084328;28;20193;-78
2023/12/29 04:27:41;;;;;;;19.60;3.80;;;;;;;9.48;100.00;100597.72;5065365;28;20033;-78
2023/12/29 04:30:07;;;;;;;18.95;3.60;;;;;;;9.46;100.00;100598.56;5085602;28;20035;-78
2023/12/29 04:32:32;;;;;;;16.55;3.20;;;;;;;9.52;100.00;100609.16;5082632;28;20028;-78
2023/12/29 04:34:58;;;;;;;19.13;3.30;;;;;;;9.49;100.00;100580.97;5085526;28;20024;-76
2023/12/29 04:37:23;;;;;;;18.15;3.20;;;;;;;9.32;100.00;100601.13;5083223;28;20035;-75
2023/12/29 04:39:48;;;;;;;19.38;3.67;;;;;;;9.42;100.00;100589.75;5084070;28;20529;-75
2023/12/29 04:42:14;;;;;;;20.48;3.58;;;;;;;9.42;100.00;100605.56;5084097;28;20028;-75
2023/12/29 04:44:39;;;;;;;17.63;3.28;;;;;;;9.42;100.00;100590.63;5082743;28;20035;-75
2023/12/29 04:47:05;;;;;;;18.45;3.50;;;;;;;9.51;100.00;100591.53;5085505;28;20032;-75
2023/12/29 04:49:30;;;;;;;17.10;3.30;;;;;;;9.57;100.00;100584.53;5081888;28;20036;-75
2023/12/29 04:51:55;;;;;;;18.40;3.50;;;;;;;9.52;100.00;100583.66;5084930;28;20039;-75
2023/12/29 04:54:21;;;;;;;17.55;3.38;;;;;;;9.48;100.00;100604.72;5065205;28;20091;-75
2023/12/29 04:56:46;;;;;;;17.88;3.50;;;;;;;9.42;100.00;100590.63;5082630;28;20483;-75
2023/12/29 04:59:11;;;;;;;20.45;3.80;;;;;;;9.41;100.00;100599.41;5084081;28;20036;-76
2023/12/29 05:01:37;;;;;;;17.13;3.20;;;;;;;9.40;100.00;100592.38;5081937;28;20036;-77
2023/12/29 05:04:02;;;;;;;18.90;3.42;;;;;;;9.36;100.00;100608.19;5085276;28;20028;-75
2023/12/29 05:06:27;;;;;;;21.02;3.90;;;;;;;9.31;100.00;100615.19;5081926;28;20095;-74
2023/12/29 05:08:53;;;;;;;18.42;3.65;;;;;;;9.38;100.00;100603.81;5084476;28;20115;-82
2023/12/29 05:11:18;;;;;;;19.55;3.50;;;;;;;9.40;100.00;100609.97;5083439;28;20064;-81
2023/12/29 05:13:44;;;;;;;19.98;3.65;;;;;;;9.38;100.00;100599.41;5082946;28;20024;-77
2023/12/29 05:16:09;;;;;;;19.30;3.80;;;;;;;9.39;100.00;100611.75;5084520;28;20024;-80
2023/12/29 05:18:35;;;;;;;20.77;3.60;;;;;;;9.36;100.00;100589.72;5081339;28;20040;-78
2023/12/29 05:21:00;;;;;;;20.55;3.50;;;;;;;9.27;100.00;100600.22;5081369;28;20052;-78
2023/12/29 05:23:26;;;;;;;19.15;3.50;;;;;;;9.25;100.00;100600.22;5084178;28;20107;-78
2023/12/29 05:25:51;;;;;;;19.95;3.67;;;;;;;9.29;100.00;100591.47;5082520;28;20498;-78
2023/12/29 05:28:17;;;;;;;18.45;3.30;;;;;;;9.29;100.00;100596.72;5083013;28;20021;-78
2023/12/29 05:30:42;;;;;;;17.40;3.38;;;;;;;9.29;100.00;100612.56;5065767;28;20032;-77
2023/12/29 05:33:07;;;;;;;19.77;3.40;;;;;;;9.28;100.00;100608.16;5081236;28;20467;-78
2023/12/29 05:35:33;;;;;;;21.85;3.78;;;;;;;9.26;100.00;100583.50;5081350;28;20029;-75
2023/12/29 05:37:58;;;;;;;18.55;3.40;;;;;;;9.29;100.00;100612.56;5084338;28;20115;-75
2023/12/29 05:40:23;;;;;;;19.85;3.58;;;;;;;9.25;100.00;100593.19;5081785;28;20161;-76
2023/12/29 05:42:49;;;;;;;21.23;3.65;;;;;;;9.16;100.00;100582.59;5082922;28;20028;-75
2023/12/29 05:45:16;;;;;;;19.77;3.45;;;;;;;9.17;100.00;100591.38;5065168;28;20032;-78
2023/12/29 05:47:42;;;;;;;19.05;3.40;;;;;;;9.19;100.00;100587.88;5081960;28;20033;-75
2023/12/29 05:50:08;;;;;;;17.80;3.35;;;;;;;9.17;100.00;100573.78;5084316;28;20047;-78
2023/12/29 05:52:33;;;;;;;18.17;3.30;;;;;;;9.17;100.00;100594.88;5080856;28;20021;-78
2023/12/29 05:54:58;;;;;;;18.38;3.15;;;;;;;9.24;100.00;100595.81;5084247;28;20032;-79
2023/12/29 05:57:24;;;;;;;19.65;3.38;;;;;;;9.22;100.00;100589.66;5081669;28;20024;-79
2023/12/29 05:59:49;;;;;;;20.20;3.63;;;;;;;9.16;100.00;100571.13;5082805;28;20029;-79
2023/12/29 06:02:14;;;;;;;18.75;3.50;;;;;;;9.16;100.00;100579.03;5083175;28;20135;-79
2023/12/29 06:04:40;;;;;;;19.92;3.70;;;;;;;9.20;100.00;100584.38;5081303;28;20056;-80
2023/12/29 06:07:05;;;;;;;19.60;3.58;;;;;;;9.16;100.00;100565.84;5084492;28;20031;-79
2023/12/29 06:09:31;;;;;;;21.70;3.90;;;;;;;8.60;100.00;100586.56;5065777;28;20033;-79
2023/12/29 06:11:56;;;;;;;19.52;3.90;;;;;;;8.34;100.00;100603.00;5087839;28;20060;-79
2023/12/29 06:14:21;;;;;;;19.33;3.70;;;;;;;8.24;100.00;100608.16;5086058;28;20213;-80
2023/12/29 06:16:47;;;;;;;21.25;4.05;;;;;;;8.21;100.00;100616.91;5086453;28;20025;-80
2023/12/29 06:19:12;;;;;;;21.88;4.53;;;;;;;8.19;100.00;100601.09;5069004;28;20483;-76
2023/12/29 06:21:43;;;;;;;19.73;3.50;;;;;;;8.11;100.00;100612.41;5084793;28;20045;-77
2023/12/29 06:24:08;;;;;;;19.45;3.30;;;;;;;8.18;100.00;100596.69;5070130;28;20024;-76
2023/12/29 06:26:34;;;;;;;20.52;3.70;;;;;;;8.23;100.00;100591.47;5084571;28;20031;-79
2023/12/29 06:28:59;;;;;;;22.50;3.95;;;;;;;8.30;100.00;100609.09;5087733;28;20081;-80
2023/12/29 06:31:24;;;;;;;19.05;3.53;;;;;;;8.33;100.00;100590.69;5085518;28;20141;-77
2023/12/29 06:33:50;;;;;;;20.77;3.50;;;;;;;8.43;100.00;100610.13;5086357;28;20021;-81
2023/12/29 06:36:15;;;;;;;20.08;3.40;;;;;;;8.49;100.00;100615.47;5086756;28;20475;-78
2023/12/29 06:38:41;;;;;;;19.05;3.50;;;;;;;8.60;100.00;100607.66;5084875;28;20020;-79
2023/12/29 06:41:06;;;;;;;18.50;3.50;;;;;;;8.73;100.00;100591.06;5087702;28;20043;-81
2023/12/29 06:43:32;;;;;;;18.20;3.20;;;;;;;8.78;100.00;100601.66;5084413;28;20029;-78
2023/12/29 06:45:57;;;;;;;18.48;3.30;;;;;;;8.89;100.00;100601.72;5087099;28;20414;-79
2023/12/29 06:48:23;;;;;;;18.17;3.10;;;;;;;8.97;100.00;100597.41;5085258;28;20024;-76
2023/12/29 06:50:48;;;;;;;18.23;3.15;;;;;;;9.05;100.00;100590.41;5085982;28;20029;-81
2023/12/29 06:53:13;;;;;;;16.40;3.45;;;;;;;9.07;100.00;100603.59;5086609;28;20036;-80
2023/12/29 06:55:39;;;;;;;16.63;3.25;;;;;;;9.10;100.00;100603.66;5084415;28;20459;-80
2023/12/29 06:58:04;;;;;;;18.63;3.65;;;;;;;9.01;100.00;100588.66;5087872;28;20032;-76
2023/12/29 07:00:30;;;;;;;16.50;3.38;;;;;;;9.04;100.00;100588.66;5066018;28;20067;-76
2023/12/29 07:02:55;;;;;;;18.77;3.20;;;;;;;9.03;100.00;100570.19;5086463;28;20368;-75
2023/12/29 07:05:21;;;;;;;16.20;3.45;;;;;;;9.07;100.00;100591.31;5085423;28;20032;-78
2023/12/29 07:07:46;;;;;;;21.88;3.83;;;;;;;9.08;100.00;100595.69;5085171;28;20044;-80
2023/12/29 07:10:15;;;;;;;19.17;3.40;;;;;;;9.12;100.00;100564.09;5086618;28;20104;-81
2023/12/29 07:12:41;;;;;;;16.95;2.90;;;;;;;9.11;100.00;100572.88;5084497;28;20108;-79
2023/12/29 07:15:07;;;;;;;19.13;3.30;;;;;;;9.04;100.00;100574.59;5087004;28;20498;-79
2023/12/29 07:17:32;;;;;;;17.90;3.55;;;;;;;8.77;100.00;100581.44;5083737;28;20033;-78
2023/12/29 07:19:58;;;;;;;19.90;3.45;;;;;;;8.73;100.00;100591.06;5085627;28;20113;-81
2023/12/29 07:22:23;;;;;;;17.60;3.15;;;;;;;8.63;100.00;100565.50;5084677;28;20028;-80
2023/12/29 07:24:48;;;;;;;19.13;3.20;;;;;;;8.66;100.00;100581.34;5067255;28;20060;-79
2023/12/29 07:27:14;;;;;;;16.42;3.33;;;;;;;8.82;100.00;100584.09;5085844;28;20032;-81
2023/12/29 07:29:39;;;;;;;17.60;3.38;;;;;;;8.83;100.00;100583.25;5065680;28;20035;-79
2023/12/29 07:32:05;;;;;;;18.13;3.33;;;;;;;8.84;100.00;100577.06;5069038;28;20028;-77
2023/12/29 07:34:31;;;;;;;16.90;3.15;;;;;;;8.93;100.00;100574.53;5083444;28;20025;-78
2023/12/29 07:36:58;;;;;;;15.57;3.17;;;;;;;8.95;100.00;100558.72;5085923;28;20029;-77
2023/12/29 07:39:24;;;;;;;15.32;3.22;;;;;;;9.01;100.00;100578.09;5066826;28;20016;-78
2023/12/29 07:41:50;;;;;;;17.55;3.10;;;;;;;9.07;100.00;100572.88;5085070;28;20041;-76
2023/12/29 07:44:16;;;;;;;18.65;3.20;;;;;;;9.13;100.00;100571.13;5085297;28;20360;-76
2023/12/29 07:46:43;;;;;;;13.48;3.00;;;;;;;9.20;100.00;100575.56;5083728;28;20039;-75
2023/12/29 07:49:08;;;;;;;13.95;2.88;;;;;;;9.26;100.00;100562.41;5086278;28;20051;-79
2023/12/29 07:51:34;;;;;;;15.75;2.70;;;;;;;9.23;100.00;100583.47;5082978;28;20472;-80
2023/12/29 07:53:59;;;;;;;14.23;2.80;;;;;;;9.19;100.00;100574.69;5068138;28;20028;-81
2023/12/29 07:56:24;;;;;;;15.27;2.92;;;;;;;9.13;100.00;100597.50;5083895;28;20419;-79
2023/12/29 07:58:50;;;;;;;14.95;2.83;;;;;;;9.06;100.00;100600.09;5066515;28;20029;-79
2023/12/29 08:01:15;;;;;;;14.93;2.80;;;;;;;9.10;100.00;100627.38;5085161;28;20390;-81
2023/12/29 08:03:41;;;;;;;14.10;2.75;;;;;;;9.20;100.00;100617.75;5083280;28;20032;-80
2023/12/29 08:06:06;;;;;;;15.57;2.78;;;;;;;9.21;100.00;100603.72;5086398;28;20034;-79
2023/12/29 08:08:31;;;;;;;13.38;2.60;;;;;;;9.25;100.00;100616.03;5082673;28;20036;-81
2023/12/29 08:10:57;;;;;;;12.32;2.75;;;;;;;9.22;100.00;100589.66;5085167;28;20024;-80
2023/12/29 08:13:22;;;;;;;12.77;2.80;;;;;;;9.29;100.00;100582.63;5084108;28;20446;-79
2023/12/29 08:15:47;;;;;;;12.60;2.63;;;;;;;9.26;100.00;100591.41;5084137;28;20487;-79
2023/12/29 08:18:13;;;;;;;13.57;2.63;;;;;;;9.21;100.00;100611.63;5067150;28;20032;-80
2023/12/29 08:20:38;;;;;;;12.88;2.40;;;;;;;9.25;100.00;100597.59;5082451;28;20098;-79
2023/12/29 08:23:03;;;;;;;13.20;2.75;;;;;;;9.27;100.00;100594.94;5085732;28;20119;-78
2023/12/29 08:25:29;;;;;;;12.48;2.40;;;;;;;9.29;100.00;100588.81;5082674;28;20361;-76
2023/12/29 08:27:56;;;;;;;11.10;2.67;;;;;;;9.25;100.00;100609.00;5084793;28;20434;-76
2023/12/29 08:30:22;;;;;;;11.82;2.60;;;;;;;9.29;100.00;100609.91;5083606;28;20024;-79
2023/12/29 08:32:47;;;;;;;11.40;2.30;;;;;;;9.24;100.00;100601.94;5082276;28;20032;-79
2023/12/29 08:35:12;;;;;;;10.80;2.28;;;;;;;9.30;100.00;100602.88;5084941;28;20064;-81
2023/12/29 08:37:38;;;;;;;9.80;2.35;;;;;;;9.31;100.00;100597.59;5082107;28;20392;-79
2023/12/29 08:40:04;;;;;;;8.93;2.42;;;;;;;9.29;100.00;100609.91;5085419;28;20031;-82
2023/12/29 08:42:29;;;;;;;14.65;2.60;;;;;;;9.24;100.00;100611.63;5082754;28;20037;-84
2023/12/29 08:44:55;;;;;;;11.93;2.50;;;;;;;9.13;100.00;100622.13;5084312;28;20037;-84
2023/12/29 08:47:20;;;;;;;10.70;2.20;;;;;;;8.94;100.00;100613.22;5065616;28;20110;-86
2023/12/29 08:49:46;;;;;;;9.20;2.30;;;;;;;8.63;100.00;100639.28;5083025;28;20126;-85
2023/12/29 08:52:12;;;;;;;11.40;2.47;;;;;;;8.49;100.00;100641.81;5085422;28;20050;-81
2023/12/29 08:54:37;;;;;;;13.90;2.60;;;;;;;8.42;100.00;100650.50;5082079;28;20491;-75
2023/12/29 08:57:03;;;;;;;12.23;2.40;;;;;;;8.45;100.00;100633.88;5085555;28;20034;-81
2023/12/29 08:59:29;;;;;;;9.48;2.50;;;;;;;8.45;100.00;100650.56;5064351;28;20035;-78
2023/12/29 09:01:54;;;;;;;11.23;2.30;;;;;;;8.47;100.00;100642.66;5084305;28;20032;-77
2023/12/29 09:04:20;;;;;;;8.70;2.22;;;;;;;8.57;100.00;100638.38;5083407;28;20390;-77
2023/12/29 09:06:45;;;;;;;11.43;2.40;;;;;;;8.54;100.00;100644.47;5082643;28;20035;-75
2023/12/29 09:09:12;;;;;;;5.95;2.13;;;;;;;8.65;100.00;100631.41;5084850;28;20085;-79
2023/12/29 09:11:44;;;;;;;14.75;2.42;;;;;;;8.50;100.00;100637.41;5063758;28;20063;-78
2023/12/29 09:14:10;;;;;;;9.52;2.40;;;;;;;8.33;100.00;100643.38;5084603;28;20031;-82
2023/12/29 09:16:35;;;;;;;10.63;2.47;;;;;;;8.29;100.00;100653.88;5081490;28;20051;-81
2023/12/29 09:19:01;;;;;;;10.57;2.40;;;;;;;8.25;100.00;100636.25;5081599;28;20068;-79
2023/12/29 09:21:26;;;;;;;8.90;2.50;;;;;;;8.26;100.00;100648.56;5080930;28;20028;-76
2023/12/29 09:23:52;;;;;;;9.35;2.22;;;;;;;8.30;100.00;100650.34;5082769;28;20081;-77
2023/12/29 09:26:18;;;;;;;11.25;2.22;;;;;;;8.37;100.00;100654.81;5082938;28;20031;-78
2023/12/29 09:28:44;;;;;;;7.85;2.17;;;;;;;8.35;100.00;100652.16;5083665;28;20031;-79
2023/12/29 09:31:12;;;;;;;13.77;2.58;;;;;;;8.42;100.00;100646.94;5063957;28;20017;-80
2023/12/29 09:33:37;;;;;;;8.68;2.20;;;;;;;8.48;100.00;100649.69;5084719;28;20382;-79
2023/12/29 09:36:04;;;;;;;10.75;2.40;;;;;;;8.44;100.00;100664.56;5081215;28;20025;-80
2023/12/29 09:38:29;;;;;;;8.80;2.30;;;;;;;8.51;100.00;100650.59;5084675;28;20032;-77
2023/12/29 09:40:59;;;;;;;9.57;2.30;;;;;;;8.57;100.00;100644.50;5082041;28;20043;-76
2023/12/29 09:43:25;;;;;;;9.13;2.45;;;;;;;8.62;100.00;100655.09;5083823;28;20024;-76
2023/12/29 09:45:52;;;;;;;9.48;2.35;;;;;;;8.71;100.00;100671.88;5082745;28;20032;-77
2023/12/29 09:48:19;;;;;;;10.20;2.40;;;;;;;8.83;100.00;100646.50;5064743;28;20021;-76
2023/12/29 09:50:46;;;;;;;9.52;2.30;;;;;;;8.95;100.00;100657.13;5083344;28;20074;-76
2023/12/29 09:53:13;;;;;;;7.32;2.33;;;;;;;9.03;100.00;100658.09;5081815;28;20487;-75
2023/12/29 09:55:40;;;;;;;8.32;2.30;;;;;;;9.14;100.00;100644.97;5079058;28;20056;-75
2023/12/29 09:58:08;;;;;;;6.40;2.53;;;;;;;9.18;100.00;100643.25;5062862;28;20063;-79
2023/12/29 10:00:34;;;;;;;8.63;2.30;;;;;;;9.31;100.00;100652.13;5080978;28;20382;-79
2023/12/29 10:03:00;;;;;;;9.18;2.10;;;;;;;9.38;100.00;100636.34;5084333;28;20029;-78
2023/12/29 10:05:26;;;;;;;8.77;2.30;;;;;;;9.46;100.00;100640.78;5076279;28;20028;-79
2023/12/29 10:07:53;;;;;;;5.32;2.00;;;;;;;9.49;100.00;100640.78;5081986;28;20368;-78
2023/12/29 10:10:20;;;;;;;8.98;2.10;;;;;;;9.55;100.00;100639.09;5083912;28;20394;-76
2023/12/29 10:12:48;;;;;;;5.55;2.00;;;;;;;9.60;100.00;100636.47;5081116;28;20048;-80
2023/12/29 10:15:21;;;;;;;5.95;2.00;;;;;;;9.62;100.00;100631.19;5084895;28;20103;-77
2023/12/29 10:18:04;;;;;;;4.03;1.92;;;;;;;9.69;100.00;100641.78;5081000;28;20067;-79
2023/12/29 10:20:47;;;;;;;5.95;2.00;;;;;;;9.73;100.00;100648.84;5082088;28;20127;-78
2023/12/29 10:23:37;;;;;;;6.95;2.20;;;;;;;9.77;100.00;100644.44;5080719;28;20047;-80
2023/12/29 10:26:03;;;;;;;6.15;2.08;;;;;;;9.82;100.00;100641.84;5083856;28;20070;-80
2023/12/29 10:28:29;;;;;;;7.35;1.90;;;;;;;9.85;100.00;100644.50;5082543;28;20089;-80
2023/12/29 10:30:54;;;;;;;6.05;2.13;;;;;;;9.85;100.00;100641.88;5082370;28;20037;-80
2023/12/29 10:33:29;;;;;;;9.70;2.30;;;;;;;9.87;100.00;100640.09;5083517;28;20035;-79
2023/12/29 10:36:03;;;;;;;7.43;2.00;;;;;;;9.91;100.00;100657.72;5065254;28;20055;-79
2023/12/29 10:38:29;;;;;;;4.90;2.00;;;;;;;9.93;100.00;100650.66;5064587;28;20095;-79
2023/12/29 10:40:54;;;;;;;6.30;2.10;;;;;;;9.97;100.00;100664.78;5082193;28;20037;-79
2023/12/29 10:43:25;;;;;;;9.43;2.17;;;;;;;9.98;100.00;100678.00;5083723;28;20028;-79
2023/12/29 10:46:06;;;;;;;11.15;2.22;;;;;;;10.04;100.00;100669.22;5080695;28;20418;-78
2023/12/29 10:48:32;;;;;;;8.48;2.42;;;;;;;10.05;100.00;100665.72;5082729;28;20087;-79
2023/12/29 10:50:58;;;;;;;9.68;2.40;;;;;;;10.03;100.00;100673.63;5082703;28;20025;-78
2023/12/29 10:53:23;;;;;;;9.65;2.40;;;;;;;10.04;100.00;100674.50;5081498;28;20033;-79
2023/12/29 10:55:48;;;;;;;11.27;2.30;;;;;;;10.09;100.00;100673.66;5084673;28;20028;-78
2023/12/29 10:58:17;;;;;;;12.60;2.50;;;;;;;10.10;100.00;100670.09;5084161;28;20067;-79
2023/12/29 11:00:42;;;;;;;14.07;2.72;;;;;;;10.11;100.00;100673.66;5083844;28;20036;-77
2023/12/29 11:03:16;;;;;;;13.30;2.78;;;;;;;10.16;100.00;100674.53;5086959;28;20132;-78
2023/12/29 11:05:42;;;;;;;11.60;2.50;;;;;;;10.16;100.00;100663.09;5084284;28;20024;-78
2023/12/29 11:08:21;;;;;;;14.90;2.75;;;;;;;10.18;100.00;100663.97;5086989;28;20036;-78
2023/12/29 11:10:50;;;;;;;12.18;2.42;;;;;;;10.17;100.00;100659.59;5083347;28;20025;-76
2023/12/29 11:13:15;;;;;;;15.68;2.92;;;;;;;10.17;100.00;100657.81;5069125;28;20036;-76